Time;durP1;ratioP1;P1;durP2;ratioP2;P2;SDS_P1;SDS_P2;PMS_P1;PMS_P2;Temp;Humidity;BMP_temperature;BMP_pressure;BME280_temperature;BME280_humidity;BME280_pressure;Samples;Min_cycle;Max_cycle;Signal;HPM_P1;HPM_P2
2022/09/15 00:02:27;;;;;;;16.02;9.93;;;11.70;99.90;;;;;;7362095;32;20112;-62
2022/09/15 00:06:29;;;;;;;12.45;9.43;;;11.70;99.90;;;;;;7362296;32;20242;-60
2022/09/15 00:10:30;;;;;;;16.98;10.23;;;11.60;99.90;;;;;;7367348;32;20202;-61
2022/09/15 00:14:32;;;;;;;13.88;8.90;;;11.50;99.90;;;;;;7361939;32;20111;-61
2022/09/15 00:18:35;;;;;;;14.07;9.75;;;11.50;99.90;;;;;;7366755;32;20210;-60
2022/09/15 00:22:37;;;;;;;17.05;11.18;;;11.40;99.90;;;;;;7363116;32;20723;-61
2022/09/15 00:26:38;;;;;;;13.25;8.82;;;11.30;99.90;;;;;;7359381;32;20135;-59
2022/09/15 00:30:46;;;;;;;16.15;9.70;;;11.30;99.90;;;;;;7362626;32;20225;-62
2022/09/15 00:34:49;;;;;;;15.65;10.20;;;11.20;99.90;;;;;;7368160;32;20198;-60
2022/09/15 00:38:52;;;;;;;20.33;9.50;;;11.20;99.90;;;;;;7359793;32;20129;-61
2022/09/15 00:42:53;;;;;;;11.52;8.75;;;11.10;99.90;;;;;;7364153;32;20141;-61
2022/09/15 00:46:56;;;;;;;19.77;9.30;;;11.00;99.90;;;;;;7368032;32;20499;-61
2022/09/15 00:51:23;;;;;;;13.98;8.63;;;10.90;99.90;;;;;;7362214;32;20533;-60
2022/09/15 00:55:32;;;;;;;12.32;8.13;;;10.90;99.90;;;;;;7370377;32;20223;-60
2022/09/15 00:59:37;;;;;;;15.43;8.40;;;10.80;99.90;;;;;;7369851;32;20195;-60
2022/09/15 01:03:39;;;;;;;18.98;8.20;;;10.70;99.90;;;;;;7363582;32;20232;-60
2022/09/15 01:08:05;;;;;;;13.27;8.32;;;10.70;99.90;;;;;;7360571;32;20553;-60
2022/09/15 01:12:07;;;;;;;15.80;8.40;;;10.80;99.90;;;;;;7362901;32;20484;-61
2022/09/15 01:16:34;;;;;;;17.37;9.18;;;10.70;99.90;;;;;;7367300;32;20198;-60
2022/09/15 01:20:45;;;;;;;14.90;8.70;;;10.60;99.90;;;;;;7362647;32;20107;-60
2022/09/15 01:25:05;;;;;;;16.55;8.80;;;10.50;99.90;;;;;;7369130;32;20815;-60
2022/09/15 01:29:25;;;;;;;13.65;8.63;;;10.40;99.90;;;;;;7362125;32;20153;-60
2022/09/15 01:33:36;;;;;;;18.52;9.40;;;10.40;99.90;;;;;;7367708;32;20222;-59
2022/09/15 01:37:43;;;;;;;14.87;9.20;;;10.30;99.90;;;;;;7360353;32;20156;-59
2022/09/15 01:41:49;;;;;;;18.35;8.40;;;10.30;99.90;;;;;;7361738;32;20107;-60
2022/09/15 01:45:52;;;;;;;17.15;9.25;;;10.20;99.90;;;;;;7362249;32;20115;-59
2022/09/15 01:50:14;;;;;;;11.98;8.85;;;10.20;99.90;;;;;;7361407;32;20520;-59
2022/09/15 01:54:18;;;;;;;14.77;10.20;;;10.20;99.90;;;;;;7363771;32;20133;-60
2022/09/15 01:58:20;;;;;;;18.12;8.98;;;10.10;99.90;;;;;;7360103;32;20247;-60
2022/09/15 02:02:29;;;;;;;20.98;9.10;;;10.10;99.90;;;;;;7360713;32;20131;-60
2022/09/15 02:06:38;;;;;;;19.52;8.82;;;10.10;99.90;;;;;;7365896;32;20310;-60
2022/09/15 02:10:44;;;;;;;15.57;8.52;;;10.00;99.90;;;;;;7360775;32;20232;-60
2022/09/15 02:15:04;;;;;;;32.40;10.30;;;10.10;99.90;;;;;;7361410;32;20617;-60
2022/09/15 02:19:30;;;;;;;26.55;9.73;;;10.10;99.90;;;;;;7363363;32;20135;-59
2022/09/15 02:23:38;;;;;;;18.48;10.35;;;10.00;99.90;;;;;;7356460;32;20484;-60
2022/09/15 02:27:44;;;;;;;18.20;10.57;;;10.00;99.90;;;;;;7362267;32;20191;-60
2022/09/15 02:31:49;;;;;;;18.27;9.20;;;10.00;99.90;;;;;;7365824;32;20608;-60
2022/09/15 02:35:51;;;;;;;18.17;9.55;;;10.00;99.90;;;;;;7363898;32;20552;-60
2022/09/15 02:39:58;;;;;;;19.17;10.85;;;10.10;99.90;;;;;;7363736;32;20111;-60
2022/09/15 02:44:00;;;;;;;18.12;9.98;;;10.10;99.90;;;;;;7366311;32;20194;-60
2022/09/15 02:48:03;;;;;;;15.35;9.77;;;10.10;99.90;;;;;;7363189;32;20131;-60
2022/09/15 02:52:05;;;;;;;14.18;9.07;;;10.10;99.90;;;;;;7369064;32;20127;-60
2022/09/15 02:56:06;;;;;;;17.87;10.30;;;10.00;99.90;;;;;;7367295;32;20107;-60
2022/09/15 03:00:12;;;;;;;18.00;9.88;;;10.00;99.90;;;;;;7376203;32;20437;-59
2022/09/15 03:04:13;;;;;;;15.43;9.57;;;10.00;99.90;;;;;;7369621;32;20201;-59
2022/09/15 03:08:15;;;;;;;14.87;8.55;;;10.00;99.90;;;;;;7367332;32;20119;-60
2022/09/15 03:12:17;;;;;;;15.55;9.60;;;10.00;99.90;;;;;;7375407;32;20111;-59
2022/09/15 03:16:19;;;;;;;16.75;9.23;;;10.00;99.90;;;;;;7367666;32;20107;-60
2022/09/15 03:20:24;;;;;;;19.67;9.75;;;10.00;99.90;;;;;;7370152;32;20182;-59
2022/09/15 03:24:26;;;;;;;15.75;9.40;;;10.00;99.90;;;;;;7364060;32;20483;-60
2022/09/15 03:28:28;;;;;;;12.70;9.10;;;10.10;99.90;;;;;;7371409;32;20103;-60
2022/09/15 03:32:30;;;;;;;14.57;9.60;;;10.10;99.90;;;;;;7370513;32;20203;-60
2022/09/15 03:36:32;;;;;;;15.95;9.40;;;10.10;99.90;;;;;;7372387;32;20225;-60
2022/09/15 03:40:36;;;;;;;15.15;11.10;;;10.10;99.90;;;;;;7364124;32;20214;-60
2022/09/15 03:44:37;;;;;;;20.17;10.68;;;10.20;99.90;;;;;;7361512;32;20115;-60
2022/09/15 03:48:39;;;;;;;14.52;10.07;;;10.30;99.90;;;;;;7360160;32;20118;-60
2022/09/15 03:52:41;;;;;;;14.85;9.68;;;10.40;99.90;;;;;;7367578;32;20549;-60
2022/09/15 03:56:46;;;;;;;13.38;9.93;;;10.50;99.90;;;;;;7371178;32;20130;-60
2022/09/15 04:00:47;;;;;;;12.85;9.15;;;10.50;99.90;;;;;;7363412;32;20259;-60
2022/09/15 04:04:49;;;;;;;13.62;9.63;;;10.60;99.90;;;;;;7364007;32;20118;-60
2022/09/15 04:08:51;;;;;;;14.57;9.73;;;10.60;99.90;;;;;;7363191;32;20112;-61
2022/09/15 04:12:53;;;;;;;15.00;11.10;;;10.70;99.90;;;;;;7359901;32;20160;-60
2022/09/15 04:16:55;;;;;;;16.48;11.32;;;10.80;99.90;;;;;;7363464;32;20121;-60
2022/09/15 04:21:00;;;;;;;21.37;11.32;;;10.90;99.90;;;;;;7362023;32;20119;-60
2022/09/15 04:25:02;;;;;;;15.85;9.35;;;10.90;99.90;;;;;;7361507;32;20111;-60
2022/09/15 04:29:12;;;;;;;15.60;10.38;;;11.00;99.90;;;;;;7358290;32;20148;-59
2022/09/15 04:33:13;;;;;;;16.05;11.90;;;11.00;99.90;;;;;;7367080;32;20158;-60
2022/09/15 04:37:15;;;;;;;21.73;13.43;;;11.10;99.90;;;;;;7365429;32;20530;-60
2022/09/15 04:41:18;;;;;;;23.25;13.48;;;11.20;99.90;;;;;;7364292;32;20126;-60
2022/09/15 04:45:20;;;;;;;17.85;12.25;;;11.30;99.90;;;;;;7361512;32;20205;-60
2022/09/15 04:49:22;;;;;;;19.33;12.35;;;11.40;99.90;;;;;;7366448;32;20213;-60
2022/09/15 04:53:23;;;;;;;18.60;11.45;;;11.40;99.90;;;;;;7365601;32;20511;-60
2022/09/15 04:57:25;;;;;;;20.10;12.13;;;11.40;99.90;;;;;;7362434;32;20138;-62
2022/09/15 05:01:30;;;;;;;20.02;11.57;;;11.40;99.90;;;;;;7363632;32;20157;-61
2022/09/15 05:05:33;;;;;;;18.67;12.57;;;11.40;99.90;;;;;;7362754;32;20175;-61
2022/09/15 05:09:35;;;;;;;16.35;11.90;;;11.50;99.90;;;;;;7365795;32;20186;-67
2022/09/15 05:13:38;;;;;;;18.48;11.85;;;11.50;99.90;;;;;;7361321;32;20869;-64
2022/09/15 05:17:39;;;;;;;20.73;11.02;;;11.40;99.90;;;;;;7359354;32;20129;-64
2022/09/15 05:21:41;;;;;;;19.90;11.23;;;11.50;99.90;;;;;;7363482;32;20111;-66
2022/09/15 05:25:59;;;;;;;15.88;11.40;;;11.50;99.90;;;;;;7363539;32;20138;-64
2022/09/15 05:30:01;;;;;;;15.93;11.18;;;11.50;99.90;;;;;;7363924;32;20242;-64
2022/09/15 05:34:22;;;;;;;14.82;11.35;;;11.50;99.90;;;;;;7361286;32;20153;-64
2022/09/15 05:38:26;;;;;;;17.10;10.73;;;11.60;99.90;;;;;;7357852;32;20153;-65
2022/09/15 05:42:30;;;;;;;18.92;13.07;;;11.70;99.90;;;;;;7362108;32;20733;-65
2022/09/15 05:46:32;;;;;;;23.90;13.73;;;11.70;99.90;;;;;;7365278;32;20119;-65
2022/09/15 05:50:34;;;;;;;24.23;13.43;;;11.80;99.90;;;;;;7362606;32;20197;-65
2022/09/15 05:54:37;;;;;;;20.85;12.75;;;11.90;99.90;;;;;;7367186;32;20542;-64
2022/09/15 05:58:40;;;;;;;21.15;11.88;;;11.90;99.90;;;;;;7367716;32;20183;-65
2022/09/15 06:02:42;;;;;;;18.15;11.20;;;12.00;99.90;;;;;;7365989;32;20163;-64
2022/09/15 06:06:44;;;;;;;17.85;11.00;;;12.10;99.90;;;;;;7365814;32;20138;-64
2022/09/15 06:10:46;;;;;;;17.50;11.25;;;12.20;99.90;;;;;;7371795;32;20130;-64
2022/09/15 06:14:49;;;;;;;13.62;10.45;;;12.30;99.90;;;;;;7366974;32;20527;-64
2022/09/15 06:18:52;;;;;;;16.90;11.07;;;12.40;99.90;;;;;;7365054;32;20119;-64
2022/09/15 06:22:56;;;;;;;19.02;11.63;;;12.40;99.90;;;;;;7372027;32;20111;-64
2022/09/15 06:26:57;;;;;;;18.90;12.18;;;12.40;99.90;;;;;;7370672;32;20144;-65
2022/09/15 06:30:59;;;;;;;17.17;12.23;;;12.50;99.90;;;;;;7368742;32;20520;-65
2022/09/15 06:35:05;;;;;;;22.08;13.65;;;12.60;99.90;;;;;;7383424;32;20198;-65
2022/09/15 06:39:07;;;;;;;18.90;12.90;;;12.70;99.90;;;;;;7375890;32;20737;-65
2022/09/15 06:43:09;;;;;;;20.42;13.93;;;12.90;99.90;;;;;;7380653;32;20107;-65
2022/09/15 06:47:14;;;;;;;21.92;14.00;;;12.90;99.90;;;;;;7367695;32;20228;-64
2022/09/15 06:51:17;;;;;;;22.67;14.75;;;13.10;99.90;;;;;;7373850;32;20111;-64
2022/09/15 06:55:19;;;;;;;21.95;14.90;;;13.10;99.90;;;;;;7368605;32;20141;-65
2022/09/15 06:59:23;;;;;;;23.50;15.85;;;13.20;99.90;;;;;;7368389;32;20601;-65
2022/09/15 07:03:25;;;;;;;27.17;19.70;;;13.40;99.90;;;;;;7374522;32;20194;-65
2022/09/15 07:07:27;;;;;;;32.92;21.37;;;13.60;99.90;;;;;;7371074;32;20512;-64
2022/09/15 07:11:29;;;;;;;33.85;22.27;;;13.70;99.90;;;;;;7373381;32;20107;-64
2022/09/15 07:15:31;;;;;;;35.15;21.55;;;13.80;99.90;;;;;;7370379;32;20238;-65
2022/09/15 07:19:32;;;;;;;32.63;21.20;;;13.80;99.90;;;;;;7362051;32;20158;-65
2022/09/15 07:23:34;;;;;;;33.72;21.62;;;13.80;99.90;;;;;;7366484;32;20225;-65
2022/09/15 07:27:36;;;;;;;35.92;21.70;;;13.80;99.90;;;;;;7360991;32;20135;-65
2022/09/15 07:31:38;;;;;;;30.23;21.17;;;13.90;99.90;;;;;;7375649;32;20115;-66
2022/09/15 07:35:41;;;;;;;29.33;22.05;;;14.00;99.90;;;;;;7365306;32;20103;-65
2022/09/15 07:39:43;;;;;;;35.90;21.02;;;14.10;99.90;;;;;;7362579;32;20133;-65
2022/09/15 07:43:59;;;;;;;39.70;21.37;;;14.20;99.90;;;;;;7367342;32;20130;-65
2022/09/15 07:48:01;;;;;;;33.75;22.02;;;14.50;99.90;;;;;;7361099;32;20262;-65
2022/09/15 07:52:03;;;;;;;29.33;20.88;;;14.60;99.90;;;;;;7361927;32;20154;-65
2022/09/15 07:56:05;;;;;;;36.20;21.23;;;14.80;99.90;;;;;;7367714;32;20167;-65
2022/09/15 08:00:07;;;;;;;30.80;18.70;;;14.90;99.90;;;;;;7366156;32;20129;-65
2022/09/15 08:04:08;;;;;;;28.38;18.95;;;15.00;99.90;;;;;;7367631;32;20544;-65
2022/09/15 08:08:10;;;;;;;29.45;17.83;;;15.00;99.90;;;;;;7360951;32;20134;-65
2022/09/15 08:12:12;;;;;;;22.83;17.40;;;15.10;99.90;;;;;;7365571;32;20459;-65
2022/09/15 08:16:17;;;;;;;29.15;17.95;;;15.10;99.90;;;;;;7367786;32;20803;-64
2022/09/15 08:20:20;;;;;;;24.27;19.37;;;15.20;99.90;;;;;;7367653;32;20142;-64
2022/09/15 08:24:22;;;;;;;29.02;18.40;;;15.20;99.90;;;;;;7362213;32;20270;-65
2022/09/15 08:28:25;;;;;;;29.35;18.30;;;15.20;99.90;;;;;;7361684;32;20118;-65
2022/09/15 08:32:26;;;;;;;26.87;18.10;;;15.30;99.90;;;;;;7363935;32;20129;-65
2022/09/15 08:36:29;;;;;;;26.40;19.05;;;15.40;99.90;;;;;;7361904;32;20110;-65
2022/09/15 08:40:37;;;;;;;26.37;19.05;;;15.40;99.90;;;;;;7360189;32;20131;-65
2022/09/15 08:44:56;;;;;;;29.40;18.65;;;15.40;99.90;;;;;;7365174;32;20121;-65
2022/09/15 08:49:05;;;;;;;24.30;17.20;;;15.60;99.90;;;;;;7363401;32;20139;-65
2022/09/15 08:53:24;;;;;;;23.25;17.25;;;15.80;99.90;;;;;;7368865;32;20120;-65
2022/09/15 08:57:26;;;;;;;26.48;17.35;;;15.90;99.90;;;;;;7363796;32;20137;-65
2022/09/15 09:01:55;;;;;;;19.37;15.00;;;15.90;99.90;;;;;;7364903;32;20111;-65
2022/09/15 09:06:04;;;;;;;29.37;13.52;;;16.10;99.90;;;;;;7367021;32;20111;-65
2022/09/15 09:10:24;;;;;;;20.08;12.27;;;16.30;99.90;;;;;;7363648;32;20202;-65
2022/09/15 09:14:53;;;;;;;18.83;11.75;;;16.50;99.90;;;;;;7367000;32;20107;-65
2022/09/15 09:19:02;;;;;;;14.93;9.68;;;16.60;99.90;;;;;;7364616;32;20179;-65
2022/09/15 09:23:11;;;;;;;19.50;8.23;;;16.70;99.90;;;;;;7364313;32;20118;-66
2022/09/15 09:27:17;;;;;;;13.00;8.40;;;16.70;99.90;;;;;;7358457;32;20148;-65
2022/09/15 09:31:21;;;;;;;10.95;5.95;;;16.90;99.90;;;;;;7364130;32;20126;-65
2022/09/15 09:35:41;;;;;;;14.05;5.60;;;16.90;99.90;;;;;;7362503;32;20105;-65
2022/09/15 09:39:42;;;;;;;10.93;6.82;;;16.90;99.90;;;;;;7360708;32;20129;-65
2022/09/15 09:43:47;;;;;;;12.25;7.28;;;16.90;99.90;;;;;;7363827;32;20578;-65
2022/09/15 09:47:49;;;;;;;11.95;6.35;;;17.00;99.90;;;;;;7359655;32;20161;-65
2022/09/15 09:51:56;;;;;;;13.80;6.70;;;17.00;99.90;;;;;;7359506;32;20115;-65
2022/09/15 09:56:21;;;;;;;13.70;5.25;;;17.10;99.90;;;;;;7361054;32;20769;-65
2022/09/15 10:00:32;;;;;;;10.65;4.18;;;17.30;99.90;;;;;;7364722;32;20200;-65
2022/09/15 10:04:33;;;;;;;9.93;4.05;;;17.20;99.90;;;;;;7362223;32;20227;-65
2022/09/15 10:08:35;;;;;;;9.38;4.60;;;17.10;99.90;;;;;;7367110;32;20265;-64
2022/09/15 10:12:40;;;;;;;9.05;3.10;;;17.10;99.90;;;;;;7363068;32;20099;-65
2022/09/15 10:16:42;;;;;;;5.80;2.05;;;16.90;99.90;;;;;;7370376;32;20191;-65
2022/09/15 10:20:49;;;;;;;12.30;2.67;;;16.70;99.90;;;;;;7363578;32;20141;-65
2022/09/15 10:24:52;;;;;;;7.97;2.05;;;16.70;99.90;;;;;;7358911;32;20280;-65
2022/09/15 10:29:10;;;;;;;6.87;1.95;;;16.90;99.90;;;;;;7361488;32;20797;-64
2022/09/15 10:33:22;;;;;;;11.25;1.52;;;16.80;99.90;;;;;;7365899;32;20190;-65
2022/09/15 10:37:35;;;;;;;8.50;1.50;;;17.00;99.90;;;;;;7363938;32;20103;-65
2022/09/15 10:41:47;;;;;;;5.40;2.05;;;17.00;99.90;;;;;;7362745;32;20153;-65
2022/09/15 10:46:12;;;;;;;6.82;1.20;;;17.20;99.90;;;;;;7359880;32;20115;-65
2022/09/15 10:50:28;;;;;;;6.55;1.70;;;17.40;99.90;;;;;;7366896;32;20646;-65
2022/09/15 10:55:11;;;;;;;5.50;0.93;;;17.60;99.90;;;;;;7359606;32;20197;-65
2022/09/15 10:59:18;;;;;;;3.20;1.02;;;17.70;99.90;;;;;;7319873;32;20138;-65
2022/09/15 11:04:02;;;;;;;6.28;0.90;;;17.80;99.90;;;;;;7365009;32;20133;-65
2022/09/15 11:08:32;;;;;;;5.00;1.05;;;17.80;99.90;;;;;;7326975;32;20124;-65
2022/09/15 11:12:37;;;;;;;5.87;1.17;;;17.70;99.90;;;;;;7363483;32;20273;-65
2022/09/15 11:17:05;;;;;;;8.40;1.20;;;17.40;99.90;;;;;;7367972;32;20133;-66
2022/09/15 11:21:32;;;;;;;6.03;0.80;;;17.20;99.90;;;;;;7365204;32;20269;-65
2022/09/15 11:25:42;;;;;;;5.80;0.95;;;16.90;99.90;;;;;;7360224;32;20106;-65
2022/09/15 11:30:00;;;;;;;5.87;1.20;;;16.80;99.90;;;;;;7365803;32;20206;-66
2022/09/15 11:34:01;;;;;;;;;;;16.60;99.90;;;;;;7372211;32;20195;-66
2022/09/15 11:38:37;;;;;;;6.60;1.25;;;16.50;99.90;;;;;;7363831;32;20002;-65
2022/09/15 11:42:51;;;;;;;7.93;1.52;;;16.40;99.90;;;;;;7360973;32;20190;-66
2022/09/15 11:47:06;;;;;;;6.10;1.10;;;16.30;99.90;;;;;;7363325;32;20104;-65
2022/09/15 11:51:11;;;;;;;6.35;1.30;;;16.20;99.90;;;;;;7364958;32;20126;-65
2022/09/15 11:55:16;;;;;;;5.45;1.45;;;16.10;99.90;;;;;;7367544;32;20496;-65
2022/09/15 11:59:27;;;;;;;3.15;0.88;;;16.00;99.90;;;;;;7376801;32;20245;-65
2022/09/15 12:03:39;;;;;;;4.15;0.88;;;15.90;99.90;;;;;;7361313;32;20107;-65
2022/09/15 12:08:05;;;;;;;4.82;1.12;;;16.00;99.90;;;;;;7363502;32;20132;-65
2022/09/15 12:12:17;;;;;;;7.20;1.05;;;16.00;99.90;;;;;;7362874;32;20459;-65
2022/09/15 12:16:20;;;;;;;5.32;1.00;;;15.90;99.90;;;;;;7365115;32;20179;-65
2022/09/15 12:20:38;;;;;;;6.97;1.25;;;15.90;99.90;;;;;;7365803;32;20202;-65
2022/09/15 12:24:54;;;;;;;5.12;0.90;;;15.80;99.90;;;;;;7362850;32;20103;-66
2022/09/15 12:29:20;;;;;;;7.37;1.50;;;15.70;99.90;;;;;;7369766;32;20111;-65
2022/09/15 12:33:58;;;;;;;3.53;1.10;;;15.80;99.90;;;;;;7360024;32;20198;-65
2022/09/15 12:38:00;;;;;;;9.27;1.50;;;15.70;99.90;;;;;;7361473;32;20123;-65
2022/09/15 12:42:25;;;;;;;6.90;1.40;;;15.70;99.90;;;;;;7365578;32;20190;-65
2022/09/15 12:46:27;;;;;;;5.60;1.60;;;15.60;99.90;;;;;;7354989;32;20486;-65
2022/09/15 12:50:34;;;;;;;8.15;1.77;;;15.70;99.90;;;;;;7363761;32;20192;-65
2022/09/15 12:54:38;;;;;;;7.60;2.27;;;15.70;99.90;;;;;;7364181;32;20119;-65
2022/09/15 12:58:45;;;;;;;9.80;2.05;;;15.70;99.90;;;;;;7360811;32;20104;-64
2022/09/15 13:02:50;;;;;;;10.32;1.70;;;15.80;99.90;;;;;;7362700;32;20186;-64
2022/09/15 13:07:14;;;;;;;5.43;1.60;;;15.70;99.90;;;;;;7365334;32;20242;-65
2022/09/15 13:11:39;;;;;;;9.38;2.10;;;15.70;99.90;;;;;;7362539;32;21003;-65
2022/09/15 13:15:45;;;;;;;11.23;2.00;;;15.80;99.90;;;;;;7361793;32;20646;-65
2022/09/15 13:19:50;;;;;;;7.80;2.25;;;15.90;99.90;;;;;;7359651;32;20099;-66
2022/09/15 13:23:53;;;;;;;5.90;1.83;;;16.00;99.90;;;;;;7362522;32;20129;-65
2022/09/15 13:27:59;;;;;;;6.55;1.50;;;16.10;99.90;;;;;;7360813;32;20515;-65
2022/09/15 13:32:43;;;;;;;9.57;3.27;;;16.30;99.90;;;;;;7357725;32;20206;-65
2022/09/15 13:36:58;;;;;;;8.85;1.52;;;16.40;99.90;;;;;;7358304;32;20099;-65
2022/09/15 13:41:44;;;;;;;11.90;1.90;;;16.40;99.90;;;;;;7360542;32;20130;-65
2022/09/15 13:46:01;;;;;;;6.87;1.40;;;16.50;99.90;;;;;;7355057;32;20149;-66
2022/09/15 13:50:47;;;;;;;7.93;1.30;;;16.60;99.90;;;;;;7362007;32;20600;-65
2022/09/15 13:55:13;;;;;;;4.82;0.90;;;16.70;99.90;;;;;;7307117;32;20122;-65
2022/09/15 13:59:33;;;;;;;5.50;0.93;;;16.60;99.90;;;;;;7359631;32;20154;-66
2022/09/15 14:03:40;;;;;;;7.25;1.37;;;16.50;99.90;;;;;;7360926;32;20241;-65
2022/09/15 14:07:43;;;;;;;5.47;0.88;;;16.40;99.90;;;;;;7361584;32;20104;-65
2022/09/15 14:11:51;;;;;;;5.93;1.33;;;16.30;99.90;;;;;;7363437;32;20210;-65
2022/09/15 14:16:19;;;;;;;3.95;0.93;;;16.10;99.90;;;;;;7361053;32;21047;-66
2022/09/15 14:20:22;;;;;;;4.93;1.23;;;16.10;99.90;;;;;;7355984;32;20099;-64
2022/09/15 14:24:29;;;;;;;7.55;1.73;;;16.10;99.90;;;;;;7360813;32;20122;-65
2022/09/15 14:28:31;;;;;;;;;;;16.20;99.90;;;;;;7356065;32;20758;-66
2022/09/15 14:32:37;;;;;;;5.35;0.98;;;16.40;99.90;;;;;;7360883;32;20477;-66
2022/09/15 14:36:39;;;;;;;5.55;0.88;;;16.50;99.90;;;;;;7367974;32;20281;-66
2022/09/15 14:40:41;;;;;;;10.65;0.98;;;16.50;99.90;;;;;;7368623;32;20186;-65
2022/09/15 14:44:43;;;;;;;4.47;1.00;;;16.50;99.90;;;;;;7370352;32;20194;-65
2022/09/15 14:49:13;;;;;;;4.45;1.00;;;16.60;99.90;;;;;;7365369;32;20595;-65
2022/09/15 14:53:19;;;;;;;4.95;1.10;;;16.60;99.90;;;;;;7370943;32;20126;-65
2022/09/15 14:57:23;;;;;;;6.12;1.45;;;16.70;99.90;;;;;;7369338;32;20178;-65
2022/09/15 15:01:38;;;;;;;4.20;0.80;;;16.70;99.90;;;;;;7369780;32;20494;-66
2022/09/15 15:05:49;;;;;;;6.75;1.20;;;16.70;99.90;;;;;;7362405;32;20103;-66
2022/09/15 15:10:17;;;;;;;6.32;1.10;;;16.80;99.90;;;;;;7364324;32;20220;-64
2022/09/15 15:14:19;;;;;;;4.40;1.00;;;16.80;99.90;;;;;;7363055;32;20185;-65
2022/09/15 15:18:37;;;;;;;2.95;0.90;;;16.80;99.90;;;;;;7360269;32;20127;-66
2022/09/15 15:22:41;;;;;;;7.25;1.23;;;16.90;99.90;;;;;;7363320;32;20108;-67
2022/09/15 15:26:46;;;;;;;5.53;1.35;;;16.90;99.90;;;;;;7363023;32;20288;-66
2022/09/15 15:30:47;;;;;;;4.25;0.90;;;16.80;99.90;;;;;;7363299;32;20206;-66
2022/09/15 15:34:52;;;;;;;3.15;0.98;;;16.80;99.90;;;;;;7364233;32;20325;-64
2022/09/15 15:38:56;;;;;;;3.80;1.10;;;16.90;99.90;;;;;;7362372;32;20251;-64
2022/09/15 15:43:11;;;;;;;4.07;1.23;;;16.90;99.90;;;;;;7363377;32;20242;-65
2022/09/15 15:47:13;;;;;;;4.75;1.00;;;16.90;99.90;;;;;;7363827;32;20561;-64
2022/09/15 15:51:14;;;;;;;3.37;1.08;;;16.90;99.90;;;;;;7363104;32;20103;-65
2022/09/15 15:55:22;;;;;;;4.07;0.65;;;16.80;99.90;;;;;;7360587;32;20145;-65
2022/09/15 15:59:23;;;;;;;4.60;1.00;;;16.90;99.90;;;;;;7362296;32;20195;-65
2022/09/15 16:03:26;;;;;;;3.58;1.00;;;16.90;99.90;;;;;;7362266;32;20107;-65
2022/09/15 16:07:30;;;;;;;3.20;0.80;;;16.90;99.90;;;;;;7360808;32;20163;-65
2022/09/15 16:11:34;;;;;;;4.00;1.00;;;16.80;99.90;;;;;;7363995;32;20206;-64
2022/09/15 16:15:35;;;;;;;5.07;0.80;;;16.60;99.90;;;;;;7369987;32;20096;-65
2022/09/15 16:19:37;;;;;;;4.40;0.88;;;16.40;99.90;;;;;;7364296;32;20125;-64
2022/09/15 16:23:39;;;;;;;5.75;1.00;;;16.30;99.90;;;;;;7364263;32;20095;-65
2022/09/15 16:27:41;;;;;;;6.30;1.12;;;16.20;99.90;;;;;;7362233;32;20197;-67
2022/09/15 16:31:42;;;;;;;7.65;1.10;;;16.10;99.90;;;;;;7364582;32;20538;-66
2022/09/15 16:35:50;;;;;;;5.43;1.48;;;15.90;99.90;;;;;;7364477;32;20099;-64
2022/09/15 16:39:53;;;;;;;4.22;1.10;;;15.80;99.90;;;;;;7361349;32;20125;-67
2022/09/15 16:43:55;;;;;;;7.72;1.12;;;15.80;99.90;;;;;;7364395;32;20523;-67
2022/09/15 16:47:57;;;;;;;4.57;1.00;;;15.70;99.90;;;;;;7357163;32;20126;-66
2022/09/15 16:51:59;;;;;;;6.65;1.05;;;15.70;99.90;;;;;;7361393;32;20532;-66
2022/09/15 16:56:01;;;;;;;5.55;1.00;;;15.70;99.90;;;;;;7354256;32;20126;-66
2022/09/15 17:00:03;;;;;;;7.10;1.12;;;15.70;99.90;;;;;;7360635;32;20204;-66
2022/09/15 17:04:15;;;;;;;5.82;1.00;;;15.60;99.90;;;;;;7363743;32;20095;-65
2022/09/15 17:08:19;;;;;;;2.12;0.73;;;15.70;99.90;;;;;;7361130;32;20225;-65
2022/09/15 17:12:22;;;;;;;2.45;0.70;;;15.60;99.90;;;;;;7360741;32;20240;-66
2022/09/15 17:16:23;;;;;;;3.75;0.60;;;15.50;99.90;;;;;;7357046;32;20189;-65
2022/09/15 17:20:26;;;;;;;3.42;0.68;;;15.50;99.90;;;;;;7360121;32;20205;-65
2022/09/15 17:24:28;;;;;;;4.60;0.77;;;15.50;99.90;;;;;;7362374;32;20472;-65
2022/09/15 17:28:32;;;;;;;5.65;0.68;;;15.50;99.90;;;;;;7358070;32;20201;-66
2022/09/15 17:32:34;;;;;;;4.57;0.70;;;15.40;99.90;;;;;;7356565;32;20249;-66
2022/09/15 17:36:36;;;;;;;6.72;0.80;;;15.40;99.90;;;;;;7368257;32;20111;-65
2022/09/15 17:40:38;;;;;;;6.93;1.60;;;15.40;99.90;;;;;;7354651;32;20758;-65
2022/09/15 17:44:39;;;;;;;7.60;0.77;;;15.30;99.90;;;;;;7353318;32;20122;-67
2022/09/15 17:48:41;;;;;;;6.18;1.10;;;15.20;99.90;;;;;;7358292;32;20567;-66
2022/09/15 17:52:44;;;;;;;6.03;0.90;;;15.30;99.90;;;;;;7359239;32;20118;-65
2022/09/15 17:56:45;;;;;;;3.22;0.80;;;15.20;99.90;;;;;;7355651;32;20257;-66
2022/09/15 18:00:48;;;;;;;8.55;1.00;;;15.20;99.90;;;;;;7358827;32;20103;-62
2022/09/15 18:04:50;;;;;;;4.43;1.02;;;15.30;99.90;;;;;;7357035;32;20276;-63
2022/09/15 18:08:52;;;;;;;3.53;0.70;;;15.20;99.90;;;;;;7366260;32;20107;-63
2022/09/15 18:12:54;;;;;;;2.20;0.50;;;15.10;99.90;;;;;;7369328;32;20567;-63
2022/09/15 18:16:56;;;;;;;2.50;0.80;;;15.10;99.90;;;;;;7364149;32;20111;-62
2022/09/15 18:20:58;;;;;;;6.62;1.33;;;15.20;99.90;;;;;;7370424;32;20709;-63
2022/09/15 18:24:59;;;;;;;3.60;1.30;;;15.10;99.90;;;;;;7374342;32;20095;-64
2022/09/15 18:29:02;;;;;;;4.00;1.23;;;15.10;99.90;;;;;;7367559;32;20118;-63
2022/09/15 18:33:04;;;;;;;5.00;0.82;;;15.20;99.90;;;;;;7371054;32;20234;-65
2022/09/15 18:37:05;;;;;;;10.15;1.15;;;15.10;99.90;;;;;;7369734;32;20138;-65
2022/09/15 18:41:09;;;;;;;4.47;0.82;;;15.20;99.90;;;;;;7366415;32;20104;-65
2022/09/15 18:45:13;;;;;;;6.82;0.75;;;15.10;99.90;;;;;;7378902;32;20648;-66
2022/09/15 18:49:15;;;;;;;4.03;0.68;;;15.20;99.90;;;;;;7376002;32;20122;-65
2022/09/15 18:53:17;;;;;;;4.50;1.00;;;15.10;99.90;;;;;;7367983;32;20245;-65
2022/09/15 18:57:19;;;;;;;4.43;0.80;;;15.00;99.90;;;;;;7364789;32;20171;-65
2022/09/15 19:01:21;;;;;;;4.82;0.90;;;14.90;99.90;;;;;;7362514;32;21879;-66
2022/09/15 19:05:23;;;;;;;5.05;1.10;;;14.90;99.90;;;;;;7370749;32;20111;-63
2022/09/15 19:09:25;;;;;;;5.60;0.90;;;14.90;99.90;;;;;;7359767;32;20208;-65
2022/09/15 19:13:27;;;;;;;5.57;1.37;;;14.90;99.90;;;;;;7364189;32;20186;-65
2022/09/15 19:17:29;;;;;;;3.55;0.70;;;14.90;99.90;;;;;;7364490;32;20099;-65
2022/09/15 19:21:31;;;;;;;5.00;0.70;;;14.80;99.90;;;;;;7367687;32;20205;-65
2022/09/15 19:25:33;;;;;;;4.00;0.73;;;14.80;99.90;;;;;;7363518;32;20161;-65
2022/09/15 19:29:36;;;;;;;3.62;0.70;;;14.80;99.90;;;;;;7363635;32;20104;-65
2022/09/15 19:33:38;;;;;;;4.03;0.85;;;14.60;99.90;;;;;;7369045;32;20118;-65
2022/09/15 19:37:41;;;;;;;7.53;1.20;;;14.60;99.90;;;;;;7360817;32;20099;-65
2022/09/15 19:41:43;;;;;;;3.20;0.82;;;14.70;99.90;;;;;;7364454;32;20516;-64
2022/09/15 19:45:45;;;;;;;6.50;0.93;;;14.70;99.90;;;;;;7373020;32;20208;-65
2022/09/15 19:49:46;;;;;;;5.55;0.80;;;14.60;99.90;;;;;;7364177;32;20491;-65
2022/09/15 19:53:51;;;;;;;3.80;1.12;;;14.50;99.90;;;;;;7369779;32;20222;-67
2022/09/15 19:57:53;;;;;;;2.33;0.62;;;14.50;99.90;;;;;;7369093;32;20130;-67
2022/09/15 20:01:55;;;;;;;6.75;0.90;;;14.40;99.90;;;;;;7366993;32;20186;-66
2022/09/15 20:05:57;;;;;;;6.75;1.27;;;14.30;99.90;;;;;;7362779;32;20118;-62
2022/09/15 20:09:58;;;;;;;5.30;0.80;;;14.20;99.90;;;;;;7360326;32;20209;-64
2022/09/15 20:14:00;;;;;;;9.52;0.80;;;14.20;99.90;;;;;;7365647;32;20129;-64
2022/09/15 20:18:03;;;;;;;6.32;0.98;;;14.00;99.90;;;;;;7361561;32;20115;-66
2022/09/15 20:22:05;;;;;;;3.95;0.80;;;13.90;99.90;;;;;;7359355;32;20666;-67
2022/09/15 20:26:08;;;;;;;7.12;0.93;;;14.00;99.90;;;;;;7362830;32;20602;-67
2022/09/15 20:30:10;;;;;;;4.93;1.00;;;13.90;99.90;;;;;;7360343;32;20425;-67
2022/09/15 20:34:11;;;;;;;3.80;1.05;;;13.90;99.90;;;;;;7365876;32;20111;-65
2022/09/15 20:38:13;;;;;;;6.32;0.90;;;13.80;99.90;;;;;;7363573;32;20095;-65
2022/09/15 20:42:15;;;;;;;6.45;1.08;;;13.80;99.90;;;;;;7361421;32;20119;-64
2022/09/15 20:46:20;;;;;;;5.95;0.85;;;13.80;99.90;;;;;;7367271;32;20121;-65
2022/09/15 20:50:21;;;;;;;4.85;0.90;;;13.80;99.90;;;;;;7364311;32;20194;-62
2022/09/15 20:54:23;;;;;;;3.60;0.77;;;13.60;99.90;;;;;;7368772;32;20597;-62
2022/09/15 20:58:25;;;;;;;3.25;0.70;;;13.60;99.90;;;;;;7360487;32;20194;-62
2022/09/15 21:02:26;;;;;;;5.32;1.10;;;13.60;99.90;;;;;;7359696;32;20118;-62
2022/09/15 21:06:28;;;;;;;7.43;0.93;;;13.50;99.90;;;;;;7360766;32;20243;-62
2022/09/15 21:10:30;;;;;;;13.75;1.23;;;13.50;99.90;;;;;;7359537;32;20141;-62
2022/09/15 21:14:32;;;;;;;4.50;0.75;;;13.50;99.90;;;;;;7361612;32;20111;-62